Time;durP1;ratioP1;P1;durP2;ratioP2;P2;SDS_P1;SDS_P2;PMS_P1;PMS_P2;Temp;Humidity;BMP_temperature;BMP_pressure;BME280_temperature;BME280_humidity;BME280_pressure;Samples;Min_cycle;Max_cycle;Signal;HPM_P1;HPM_P2
2023/11/29 00:01:01;;;;;;;;;;;;;;;-3.92;100.00;99451.25;4967561;28;19992;-94
2023/11/29 00:03:26;;;;;;;14.63;6.32;;;;;;;-4.13;100.00;99405.75;4982259;28;19917;-94
2023/11/29 00:05:51;;;;;;;;;;;;;;;-4.00;100.00;99426.63;4968442;28;20026;-94
2023/11/29 00:08:18;;;;;;;;;;;;;;;-3.94;100.00;99416.63;4966888;28;19924;-93
2023/11/29 00:10:43;;;;;;;16.75;6.10;;;;;;;-4.15;100.00;99385.00;4968230;28;19956;-94
2023/11/29 00:13:08;;;;;;;;;;;;;;;-3.98;100.00;99399.53;4979639;28;20088;-94
2023/11/29 00:15:34;;;;;;;15.23;6.63;;;;;;;-3.98;100.00;99391.72;4966331;28;19917;-93
2023/11/29 00:17:59;;;;;;;;;;;;;;;-3.92;100.00;99406.09;4985203;28;20277;-93
2023/11/29 00:20:24;;;;;;;;;;;;;;;-4.23;100.00;99376.88;4989218;28;19913;-94
2023/11/29 00:22:50;;;;;;;11.68;5.68;;;;;;;-4.29;100.00;99365.06;4963376;28;19910;-93
2023/11/29 00:25:15;;;;;;;;;;;;;;;-4.20;100.00;99394.06;4965296;28;20031;-93
2023/11/29 00:27:41;;;;;;;17.23;6.43;;;;;;;-4.22;100.00;99394.16;4970572;28;20021;-93
2023/11/29 00:30:06;;;;;;;;;;;;;;;-3.84;100.00;99432.47;4988501;28;20073;-94
2023/11/29 00:32:32;;;;;;;;;;;;;;;-3.84;100.00;99412.47;4984641;28;19918;-94
2023/11/29 00:34:57;;;;;;;11.95;5.35;;;;;;;-3.95;100.00;99380.25;4984811;28;19921;-93
2023/11/29 00:37:23;;;;;;;;;;;;;;;-3.72;100.00;99395.16;4985636;28;20123;-94
2023/11/29 00:39:48;;;;;;;8.45;4.60;;;;;;;-4.01;100.00;99342.38;4986774;28;19936;-93
2023/11/29 00:42:13;;;;;;;;;;;;;;;-3.97;100.00;99356.03;4982382;28;20025;-92
2023/11/29 00:44:39;;;;;;;8.70;5.20;;;;;;;-3.93;100.00;99355.72;4987380;28;19914;-93
2023/11/29 00:47:04;;;;;;;;;;;;;;;-3.76;100.00;99356.34;4968896;28;20023;-93
2023/11/29 00:49:29;;;;;;;12.45;6.60;;;;;;;-4.00;100.00;99317.13;4987831;28;20411;-94
2023/11/29 00:51:55;;;;;;;;;;;;;;;-3.88;100.00;99338.00;4972138;28;20011;-94
2023/11/29 00:54:20;;;;;;;11.40;5.03;;;;;;;-3.99;100.00;99319.63;5001473;28;19909;-91
2023/11/29 00:56:45;;;;;;;;;;;;;;;-3.73;100.00;99345.69;5000927;28;20026;-90
2023/11/29 00:59:12;;;;;;;10.25;5.15;;;;;;;-3.92;100.00;99318.28;4972465;28;19913;-90
2023/11/29 01:01:38;;;;;;;9.60;4.60;;;;;;;-3.89;100.00;99331.09;4972936;28;20026;-91
2023/11/29 01:04:03;;;;;;;;;;;;;;;-3.88;100.00;99335.38;4997732;28;20035;-91
2023/11/29 01:06:29;;;;;;;;;;;;;;;-3.78;100.00;99345.19;4985435;28;19965;-91
2023/11/29 01:08:57;;;;;;;12.50;5.03;;;;;;;-3.65;100.00;99359.88;4967640;28;19945;-93
2023/11/29 01:11:23;;;;;;;12.18;5.90;;;;;;;-3.77;100.00;99336.41;4987991;28;20044;-94
2023/11/29 01:13:49;;;;;;;15.98;6.75;;;;;;;-3.64;100.00;99361.53;4968971;28;20050;-93
2023/11/29 01:16:15;;;;;;;;;;;;;;;-3.49;100.00;99380.53;4966724;28;20105;-94
2023/11/29 01:18:41;;;;;;;16.50;6.25;;;;;;;-3.41;100.00;99367.78;4965696;28;19925;-92
2023/11/29 01:21:14;;;;;;;13.77;7.07;;;;;;;-3.42;100.00;99350.47;4985627;28;20976;-91
2023/11/29 01:23:39;;;;;;;20.55;7.53;;;;;;;-3.31;100.00;99357.50;4987164;28;20034;-92
2023/11/29 01:26:05;;;;;;;;;;;;;;;-3.15;100.00;99357.28;4968216;28;20034;-91
2023/11/29 01:28:31;;;;;;;16.10;7.07;;;;;;;-3.28;100.00;99327.75;4988944;28;19920;-91
2023/11/29 01:30:57;;;;;;;15.32;6.28;;;;;;;-3.13;100.00;99350.16;4980886;28;20089;-92
2023/11/29 01:33:23;;;;;;;;;;;;;;;-3.02;100.00;99352.84;4975838;28;20649;-91
2023/11/29 01:35:49;;;;;;;18.63;7.47;;;;;;;-3.26;100.00;99312.81;4967884;28;20504;-90
2023/11/29 01:38:14;;;;;;;;;;;;;;;-3.28;100.00;99319.91;4967772;28;20034;-91
2023/11/29 01:40:39;;;;;;;13.70;7.10;;;;;;;-3.36;100.00;99317.03;4967228;28;19909;-89
2023/11/29 01:43:04;;;;;;;;;;;;;;;-3.20;100.00;99339.31;4982388;28;20132;-91
2023/11/29 01:45:30;;;;;;;18.65;8.15;;;;;;;-3.16;100.00;99333.88;4966728;28;19917;-90
2023/11/29 01:47:55;;;;;;;;;;;;;;;-3.12;100.00;99336.16;4965502;28;20022;-90
2023/11/29 01:50:25;;;;;;;18.70;9.02;;;;;;;-3.18;100.00;99323.56;4971284;28;19928;-91
2023/11/29 01:52:53;;;;;;;21.60;9.05;;;;;;;-3.22;100.00;99311.66;4971121;28;20027;-91
2023/11/29 01:55:18;;;;;;;25.05;9.82;;;;;;;-2.98;100.00;99335.16;4975124;28;20102;-91
2023/11/29 01:57:44;;;;;;;;;;;;;;;-2.89;100.00;99328.44;4985591;28;20062;-90
2023/11/29 02:00:11;;;;;;;20.15;8.32;;;;;;;-3.04;100.00;99294.66;4977183;28;19982;-93
2023/11/29 02:02:41;;;;;;;22.90;9.05;;;;;;;-3.01;100.00;99301.44;4982387;28;20038;-93
2023/11/29 02:05:06;;;;;;;;;;;;;;;-2.90;100.00;99292.81;4977660;28;20049;-94
2023/11/29 02:07:31;;;;;;;17.90;7.72;;;;;;;-2.77;100.00;99298.81;4983184;28;19984;-94
2023/11/29 02:09:57;;;;;;;;;;;;;;;-2.81;100.00;99276.47;4975161;28;20057;-94
2023/11/29 02:12:23;;;;;;;23.15;8.63;;;;;;;-2.78;100.00;99273.66;4980457;28;19924;-94
2023/11/29 02:14:48;;;;;;;;;;;;;;;-2.80;100.00;99271.13;4974870;28;20031;-93
2023/11/29 02:17:14;;;;;;;;;;;;;;;-2.87;100.00;99254.25;4972458;28;20363;-91
2023/11/29 02:19:39;;;;;;;15.93;6.97;;;;;;;-2.92;100.00;99255.56;4977412;28;19934;-91
2023/11/29 02:22:05;;;;;;;18.95;9.07;;;;;;;-2.79;100.00;99259.75;4983458;28;20283;-91
2023/11/29 02:24:41;;;;;;;22.58;8.52;;;;;;;-2.92;100.00;99237.28;4968957;28;20077;-91
2023/11/29 02:27:09;;;;;;;23.55;9.32;;;;;;;-2.78;100.00;99255.38;4989365;28;20038;-92
2023/11/29 02:29:36;;;;;;;16.98;8.70;;;;;;;-2.73;100.00;99260.25;4983445;28;20030;-91
2023/11/29 02:32:02;;;;;;;17.55;7.95;;;;;;;-2.81;100.00;99245.97;4980027;28;20831;-91
2023/11/29 02:34:27;;;;;;;24.05;9.63;;;;;;;-2.81;100.00;99225.09;4982533;28;20029;-91
2023/11/29 02:36:52;;;;;;;;;;;;;;;-2.80;100.00;99226.72;4982234;28;20066;-92
2023/11/29 02:39:18;;;;;;;20.23;7.63;;;;;;;-2.71;100.00;99220.00;4967008;28;19910;-90
2023/11/29 02:41:43;;;;;;;;;;;;;;;-2.62;100.00;99232.38;4981723;28;20034;-92
2023/11/29 02:44:08;;;;;;;20.13;8.77;;;;;;;-2.74;100.00;99212.38;4991618;28;19982;-91
2023/11/29 02:46:33;;;;;;;;;;;;;;;-2.88;100.00;99199.50;4965659;28;20060;-91
2023/11/29 02:48:59;;;;;;;20.03;8.83;;;;;;;-2.85;100.00;99207.97;4964015;28;19910;-91
2023/11/29 02:51:25;;;;;;;19.65;8.55;;;;;;;-2.59;100.00;99224.28;4986747;28;20288;-91
2023/11/29 02:53:51;;;;;;;19.20;8.50;;;;;;;-2.73;100.00;99216.66;4976702;28;20026;-91
2023/11/29 02:56:17;;;;;;;19.85;10.25;;;;;;;-2.59;100.00;99223.47;4981524;28;20014;-92
2023/11/29 02:58:42;;;;;;;20.52;9.88;;;;;;;-2.94;100.00;99192.16;4981568;28;20049;-93
2023/11/29 03:01:07;;;;;;;19.70;9.07;;;;;;;-2.68;100.00;99213.69;4995445;28;20588;-93
2023/11/29 03:03:33;;;;;;;;;;;;;;;-2.48;100.00;99217.41;4983035;28;20038;-92
2023/11/29 03:05:58;;;;;;;;;;;;;;;-2.46;100.00;99207.66;4981653;28;19910;-92
2023/11/29 03:08:23;;;;;;;21.90;9.90;;;;;;;-2.50;100.00;99195.81;4984440;28;19913;-91
2023/11/29 03:10:49;;;;;;;;;;;;;;;-2.62;100.00;99187.13;4980057;28;20026;-91
2023/11/29 03:13:14;;;;;;;32.72;11.07;;;;;;;-2.59;100.00;99182.47;4968701;28;19913;-92
2023/11/29 03:15:39;;;;;;;;;;;;;;;-2.58;100.00;99189.34;4982136;28;20038;-91
2023/11/29 03:18:05;;;;;;;20.20;10.23;;;;;;;-2.70;100.00;99166.78;4979307;28;19946;-92
2023/11/29 03:20:31;;;;;;;22.60;10.18;;;;;;;-2.35;100.00;99197.22;4967351;28;20274;-91
2023/11/29 03:22:56;;;;;;;22.85;9.95;;;;;;;-2.32;100.00;99178.69;4973830;28;20148;-92
2023/11/29 03:25:22;;;;;;;;;;;;;;;-2.29;100.00;99175.03;4985646;28;20162;-92
2023/11/29 03:27:47;;;;;;;21.95;9.75;;;;;;;-2.25;100.00;99166.78;4967774;28;19943;-92
2023/11/29 03:30:13;;;;;;;;;;;;;;;-2.56;100.00;99144.81;4984928;28;20035;-92
2023/11/29 03:32:38;;;;;;;27.20;10.50;;;;;;;-2.26;100.00;99167.75;4984865;28;19963;-92
2023/11/29 03:35:03;;;;;;;;;;;;;;;-2.21;100.00;99170.84;4964277;28;20504;-92
2023/11/29 03:37:32;;;;;;;28.20;11.88;;;;;;;-2.47;100.00;99138.91;4980459;28;19913;-92
2023/11/29 03:39:57;;;;;;;26.08;12.57;;;;;;;-2.48;100.00;99142.47;4960126;28;20038;-93
2023/11/29 03:42:23;;;;;;;25.88;11.45;;;;;;;-2.36;100.00;99143.31;4984156;28;20038;-91
2023/11/29 03:44:48;;;;;;;;;;;;;;;-2.37;100.00;99141.63;4985331;28;20031;-93
2023/11/29 03:47:13;;;;;;;25.23;11.55;;;;;;;-2.33;100.00;99132.59;4968433;28;19917;-92
2023/11/29 03:49:39;;;;;;;26.50;10.85;;;;;;;-2.22;100.00;99139.59;4969396;28;20035;-91
2023/11/29 03:52:04;;;;;;;;;;;;;;;-2.56;100.00;99118.69;4968015;28;20070;-92
2023/11/29 03:54:30;;;;;;;28.38;11.70;;;;;;;-2.45;100.00;99125.72;4986880;28;19910;-92
2023/11/29 03:56:55;;;;;;;33.15;14.73;;;;;;;-2.56;100.00;99109.06;4968503;28;20040;-92
2023/11/29 03:59:20;;;;;;;25.67;12.65;;;;;;;-2.47;100.00;99127.63;4971116;28;20018;-92
2023/11/29 04:01:46;;;;;;;;;;;;;;;-2.51;100.00;99126.19;4986874;28;20030;-92
2023/11/29 04:04:11;;;;;;;27.87;12.80;;;;;;;-2.42;100.00;99130.69;4985374;28;19914;-92
2023/11/29 04:06:36;;;;;;;32.70;14.10;;;;;;;-2.31;100.00;99132.50;4971468;28;20301;-92
2023/11/29 04:09:03;;;;;;;;;;;;;;;-2.19;100.00;99142.81;4967257;28;20038;-92
2023/11/29 04:11:29;;;;;;;25.30;12.52;;;;;;;-2.43;100.00;99098.50;4968255;28;19925;-93
2023/11/29 04:13:54;;;;;;;29.35;12.70;;;;;;;-2.24;100.00;99131.88;4979093;28;20030;-92
2023/11/29 04:16:27;;;;;;;29.48;13.57;;;;;;;-2.15;100.00;99140.78;4975986;28;20029;-92
2023/11/29 04:18:53;;;;;;;29.10;12.63;;;;;;;-1.93;100.00;99142.53;4978541;28;20041;-92
2023/11/29 04:21:26;;;;;;;;;;;;;;;-2.06;100.00;99116.53;5001923;28;20052;-92
2023/11/29 04:23:52;;;;;;;26.90;12.07;;;;;;;-1.97;100.00;99125.41;4986331;28;20056;-94
2023/11/29 04:26:26;;;;;;;36.55;16.17;;;;;;;-2.13;100.00;99103.09;4988066;28;20090;-92
2023/11/29 04:28:51;;;;;;;30.08;15.00;;;;;;;-1.88;100.00;99129.06;4971191;28;20030;-93
2023/11/29 04:31:17;;;;;;;34.13;14.50;;;;;;;-2.13;100.00;99103.09;4997109;28;20042;-93
2023/11/29 04:33:42;;;;;;;36.38;14.45;;;;;;;-2.03;100.00;99116.28;4978077;28;20061;-93
2023/11/29 04:36:09;;;;;;;;;;;;;;;-1.98;100.00;99114.13;4988710;28;20038;-92
2023/11/29 04:38:35;;;;;;;39.33;16.25;;;;;;;-2.02;100.00;99117.09;4973111;28;19945;-93
2023/11/29 04:41:00;;;;;;;38.10;16.58;;;;;;;-1.86;100.00;99117.53;4988968;28;20018;-93
2023/11/29 04:43:25;;;;;;;;;;;;;;;-1.63;100.00;99131.38;4973131;28;20044;-93
2023/11/29 04:45:51;;;;;;;43.17;17.00;;;;;;;-1.78;100.00;99104.69;4989337;28;19906;-93
2023/11/29 04:48:16;;;;;;;;;;;;;;;-1.59;100.00;99109.25;4989795;28;20073;-94
2023/11/29 04:50:42;;;;;;;45.95;17.13;;;;;;;-1.81;100.00;99085.78;4988846;28;19913;-93
2023/11/29 04:53:07;;;;;;;44.70;17.92;;;;;;;-1.72;100.00;99095.50;4972719;28;20043;-93
2023/11/29 04:55:32;;;;;;;44.10;19.08;;;;;;;-1.82;100.00;99095.41;4988687;28;20025;-93
2023/11/29 04:57:58;;;;;;;;;;;;;;;-1.59;100.00;99113.63;4983921;28;20035;-94
2023/11/29 05:00:23;;;;;;;38.83;19.13;;;;;;;-1.77;100.00;99095.88;4969567;28;20584;-93
2023/11/29 05:02:48;;;;;;;;;;;;;;;-1.44;100.00;99117.63;4971735;28;20032;-94
2023/11/29 05:05:14;;;;;;;43.28;17.30;;;;;;;-1.67;100.00;99098.56;4970703;28;19918;-93
2023/11/29 05:07:40;;;;;;;;;;;;;;;-1.70;100.00;99097.03;4983649;28;20022;-93
2023/11/29 05:10:07;;;;;;;41.30;18.50;;;;;;;-1.72;100.00;99083.22;4973126;28;19923;-92
2023/11/29 05:12:33;;;;;;;40.63;19.50;;;;;;;-1.65;100.00;99087.97;4988432;28;20022;-93
2023/11/29 05:14:58;;;;;;;47.88;19.75;;;;;;;-1.67;100.00;99084.66;4983503;28;20038;-93
2023/11/29 05:17:24;;;;;;;46.42;19.35;;;;;;;-1.51;100.00;99106.00;4987500;28;20040;-92
2023/11/29 05:19:50;;;;;;;52.60;22.27;;;;;;;-1.73;100.00;99083.38;4964453;28;20042;-92
2023/11/29 05:22:16;;;;;;;55.58;22.90;;;;;;;-1.71;100.00;99074.44;4983912;28;20566;-92
2023/11/29 05:24:42;;;;;;;;;;;;;;;-1.47;100.00;99098.75;4961664;28;20031;-93
2023/11/29 05:27:10;;;;;;;53.45;21.45;;;;;;;-1.50;100.00;99089.31;4969089;28;19961;-93
2023/11/29 05:29:35;;;;;;;54.22;23.80;;;;;;;-1.46;100.00;99092.53;4979402;28;20052;-94
2023/11/29 05:32:01;;;;;;;51.17;21.50;;;;;;;-1.31;100.00;99092.09;4984759;28;20038;-93
2023/11/29 05:34:26;;;;;;;;;;;;;;;-1.28;100.00;99097.06;4972464;28;20526;-92
2023/11/29 05:36:51;;;;;;;66.17;25.87;;;;;;;-1.33;100.00;99080.94;4962284;28;19998;-94
2023/11/29 05:39:19;;;;;;;;;;;;;;;-1.13;100.00;99099.38;5001139;28;20508;-93
2023/11/29 05:41:45;;;;;;;65.38;25.23;;;;;;;-1.12;100.00;99085.34;4968451;28;19910;-92
2023/11/29 05:44:11;;;;;;;66.97;27.02;;;;;;;-1.10;100.00;99089.47;4986031;28;20040;-93
2023/11/29 05:46:36;;;;;;;66.60;26.40;;;;;;;-1.07;100.00;99088.41;4969328;28;20030;-92
2023/11/29 05:49:02;;;;;;;62.83;26.45;;;;;;;-0.94;100.00;99096.84;4970171;28;20086;-93
2023/11/29 05:51:30;;;;;;;63.17;24.75;;;;;;;-0.73;100.00;99112.56;4970648;28;20098;-93
2023/11/29 05:53:57;;;;;;;59.30;25.63;;;;;;;-0.63;100.00;99112.63;4976458;28;20031;-93
2023/11/29 05:56:22;;;;;;;;;;;;;;;-0.67;100.00;99091.06;4969297;28;20037;-92
2023/11/29 05:58:48;;;;;;;69.85;28.80;;;;;;;-0.61;100.00;99102.81;4963087;28;19965;-87
2023/11/29 06:01:14;;;;;;;70.40;29.38;;;;;;;-0.76;100.00;99089.25;4986842;28;20027;-95
2023/11/29 06:03:39;;;;;;;66.80;29.08;;;;;;;-0.55;100.00;99099.69;4984976;28;20443;-92
2023/11/29 06:06:05;;;;;;;74.13;27.45;;;;;;;-0.54;100.00;99095.25;4975247;28;20031;-94
2023/11/29 06:08:30;;;;;;;63.40;28.58;;;;;;;-0.43;100.00;99103.84;4992833;28;20081;-94
2023/11/29 06:10:55;;;;;;;65.03;28.17;;;;;;;-0.48;100.00;99094.75;4994805;28;20011;-95
2023/11/29 06:13:22;;;;;;;68.25;28.75;;;;;;;-0.38;100.00;99102.63;4990885;28;20073;-94
2023/11/29 06:15:49;;;;;;;64.07;28.00;;;;;;;-0.48;100.00;99086.88;4972144;28;20094;-94
2023/11/29 06:18:15;;;;;;;67.75;28.58;;;;;;;-0.40;100.00;99091.44;4971332;28;20062;-95
2023/11/29 06:20:41;;;;;;;56.05;27.88;;;;;;;-0.35;100.00;99099.75;4977505;28;20058;-94
2023/11/29 06:23:07;;;;;;;76.72;32.20;;;;;;;-0.39;100.00;99093.13;4968905;28;20030;-93
2023/11/29 06:25:34;;;;;;;57.42;26.23;;;;;;;-0.36;100.00;99087.59;4989745;28;20058;-94
2023/11/29 06:27:59;;;;;;;64.05;27.65;;;;;;;-0.22;100.00;99105.59;4984944;28;20034;-93
2023/11/29 06:30:25;;;;;;;77.00;31.33;;;;;;;-0.20;100.00;99094.97;4988895;28;20465;-94
2023/11/29 06:32:50;;;;;;;71.05;31.05;;;;;;;-0.22;100.00;99090.69;4987256;28;20025;-94
2023/11/29 06:35:16;;;;;;;56.28;26.27;;;;;;;-0.21;100.00;99094.16;4968638;28;20046;-94
2023/11/29 06:37:47;;;;;;;58.38;25.95;;;;;;;-0.17;100.00;99092.91;4963522;28;20038;-94
2023/11/29 06:40:16;;;;;;;91.45;31.52;;;;;;;-0.21;100.00;99086.28;4984727;28;20030;-93
2023/11/29 06:42:42;;;;;;;63.35;28.38;;;;;;;-0.15;100.00;99090.97;4963566;28;20023;-93
2023/11/29 06:45:09;;;;;;;64.90;27.58;;;;;;;-0.15;100.00;99083.09;4966253;28;20041;-94
2023/11/29 06:47:35;;;;;;;62.95;26.10;;;;;;;-0.16;100.00;99084.09;4979672;28;20033;-93
2023/11/29 06:50:03;;;;;;;60.63;25.63;;;;;;;-0.14;100.00;99092.66;4970598;28;20039;-92
2023/11/29 06:52:29;;;;;;;57.47;24.55;;;;;;;-0.14;100.00;99091.78;4993733;28;20042;-92
2023/11/29 06:54:55;;;;;;;51.90;24.75;;;;;;;-0.12;100.00;99088.06;4977481;28;20022;-90
2023/11/29 06:57:20;;;;;;;47.13;22.17;;;;;;;-0.07;100.00;99090.28;4976789;28;20050;-92
2023/11/29 06:59:46;;;;;;;50.58;24.38;;;;;;;-0.14;100.00;99071.66;4955283;28;20047;-91
2023/11/29 07:02:11;;;;;;;63.42;26.92;;;;;;;-0.14;100.00;99082.16;4957054;28;20046;-91
2023/11/29 07:04:37;;;;;;;59.97;24.08;;;;;;;-0.15;100.00;99070.00;4976890;28;20176;-91
2023/11/29 07:07:03;;;;;;;;;;;;;;;-0.05;100.00;99083.97;4961772;28;20185;-92
2023/11/29 07:09:28;;;;;;;58.22;23.67;;;;;;;-0.09;100.00;99068.63;4979794;28;19945;-93
2023/11/29 07:11:54;;;;;;;48.45;21.42;;;;;;;-0.09;100.00;99071.25;4979384;28;20030;-92
2023/11/29 07:14:23;;;;;;;53.67;22.02;;;;;;;-0.05;100.00;99086.59;4965337;28;20412;-93
2023/11/29 07:16:52;;;;;;;44.30;20.65;;;;;;;-0.14;100.00;99071.66;4970649;28;20030;-92
2023/11/29 07:19:21;;;;;;;43.92;20.17;;;;;;;-0.05;100.00;99080.50;4985227;28;20046;-92
2023/11/29 07:21:46;;;;;;;51.33;21.15;;;;;;;-0.05;100.00;99076.09;4982822;28;20026;-92
2023/11/29 07:24:12;;;;;;;51.15;22.73;;;;;;;0.02;100.00;99083.41;4982742;28;20037;-92
2023/11/29 07:26:38;;;;;;;43.70;20.02;;;;;;;0.01;100.00;99079.16;4966094;28;20056;-92
2023/11/29 07:29:04;;;;;;;41.92;18.60;;;;;;;-0.04;100.00;99075.13;4978943;28;20084;-93
2023/11/29 07:31:30;;;;;;;49.97;20.80;;;;;;;0.01;100.00;99079.16;4983984;28;20069;-93
2023/11/29 07:33:56;;;;;;;48.05;19.45;;;;;;;-0.03;100.00;99078.56;4966149;28;20031;-93
2023/11/29 07:36:22;;;;;;;43.38;19.65;;;;;;;-0.10;100.00;99062.53;4998558;28;20164;-93
2023/11/29 07:38:48;;;;;;;46.45;20.65;;;;;;;-0.02;100.00;99077.63;4987419;28;20473;-93
2023/11/29 07:41:15;;;;;;;41.45;19.10;;;;;;;-0.16;100.00;99063.09;4988003;28;20389;-93
2023/11/29 07:43:40;;;;;;;45.00;19.73;;;;;;;-0.19;100.00;99073.00;4971850;28;20073;-93
2023/11/29 07:46:08;;;;;;;44.30;19.77;;;;;;;-0.15;100.00;99072.63;4982389;28;20023;-93
2023/11/29 07:48:33;;;;;;;41.28;18.50;;;;;;;-0.11;100.00;99075.81;4989686;28;20061;-93
2023/11/29 07:50:59;;;;;;;40.75;18.27;;;;;;;-0.11;100.00;99067.94;4988045;28;20481;-93
2023/11/29 07:53:24;;;;;;;41.45;18.33;;;;;;;-0.06;100.00;99068.34;4988265;28;20042;-93
2023/11/29 07:55:50;;;;;;;39.22;16.95;;;;;;;0.04;100.00;99074.44;4987715;28;20038;-93
2023/11/29 07:58:15;;;;;;;32.95;16.13;;;;;;;0.05;100.00;99070.88;4997839;28;20030;-92
2023/11/29 08:00:41;;;;;;;39.10;18.73;;;;;;;0.08;100.00;99075.00;4986545;28;20391;-93
2023/11/29 08:03:06;;;;;;;38.65;18.25;;;;;;;0.02;100.00;99062.41;4990128;28;20042;-94
2023/11/29 08:05:33;;;;;;;36.22;16.05;;;;;;;0.04;100.00;99063.94;4996834;28;20481;-93
2023/11/29 08:08:02;;;;;;;35.58;16.20;;;;;;;0.04;100.00;99071.81;4965771;28;20034;-92
2023/11/29 08:10:29;;;;;;;37.38;16.35;;;;;;;-0.01;100.00;99055.66;4965472;28;20019;-93
2023/11/29 08:12:58;;;;;;;37.58;17.67;;;;;;;0.06;100.00;99063.81;4969224;28;20125;-93
2023/11/29 08:15:23;;;;;;;;;;;;;;;0.15;100.00;99071.69;4968973;28;20147;-93
2023/11/29 08:17:49;;;;;;;41.78;17.77;;;;;;;0.19;100.00;99075.72;4982862;28;19921;-93
2023/11/29 08:20:14;;;;;;;34.47;17.98;;;;;;;0.11;100.00;99056.34;4967880;28;20097;-92
2023/11/29 08:22:40;;;;;;;48.05;19.73;;;;;;;0.14;100.00;99061.31;4982621;28;20072;-93
2023/11/29 08:25:06;;;;;;;31.42;15.60;;;;;;;0.09;100.00;99051.22;4981684;28;20034;-92
2023/11/29 08:27:31;;;;;;;34.50;15.95;;;;;;;0.06;100.00;99069.06;4983370;28;20034;-92
2023/11/29 08:29:57;;;;;;;35.70;16.17;;;;;;;-0.02;100.00;99064.50;4965909;28;20106;-92
2023/11/29 08:32:22;;;;;;;31.05;15.98;;;;;;;0.05;100.00;99070.88;4965056;28;20022;-92
2023/11/29 08:34:47;;;;;;;31.58;14.02;;;;;;;0.05;100.00;99065.63;4962549;28;20222;-92
2023/11/29 08:37:13;;;;;;;34.97;16.08;;;;;;;0.16;100.00;99075.13;4978316;28;20035;-92
2023/11/29 08:39:38;;;;;;;33.53;16.08;;;;;;;0.13;100.00;99068.38;4976270;28;20034;-92
2023/11/29 08:42:04;;;;;;;35.97;16.15;;;;;;;0.23;100.00;99080.69;4980847;28;20023;-93
2023/11/29 08:44:32;;;;;;;34.28;16.38;;;;;;;0.19;100.00;99075.72;4981631;28;20026;-92
2023/11/29 08:46:57;;;;;;;42.05;18.38;;;;;;;0.22;100.00;99071.16;4966073;28;20045;-94
2023/11/29 08:49:23;;;;;;;35.25;15.50;;;;;;;0.27;100.00;99080.25;4964354;28;20034;-93
2023/11/29 08:51:48;;;;;;;27.25;13.43;;;;;;;0.29;100.00;99078.34;4980691;28;20034;-93
2023/11/29 08:54:13;;;;;;;35.65;15.35;;;;;;;0.37;100.00;99086.34;4979420;28;20049;-92
2023/11/29 08:56:40;;;;;;;34.30;17.27;;;;;;;0.47;100.00;99083.75;4965798;28;20504;-92
2023/11/29 08:59:05;;;;;;;30.65;14.63;;;;;;;0.55;100.00;99093.53;4981435;28;20046;-93
2023/11/29 09:01:31;;;;;;;36.75;17.40;;;;;;;0.54;100.00;99070.84;4974276;28;20099;-92
2023/11/29 09:03:57;;;;;;;30.55;15.85;;;;;;;0.63;100.00;99081.38;4976266;28;20022;-92
2023/11/29 09:06:23;;;;;;;;;;;;;;;0.72;100.00;99074.44;4968477;28;20249;-92
2023/11/29 09:08:48;;;;;;;35.47;16.90;;;;;;;0.76;100.00;99067.13;4968610;28;19921;-92
2023/11/29 09:11:17;;;;;;;31.60;15.77;;;;;;;0.79;100.00;99062.41;4985559;28;20043;-93
2023/11/29 09:13:47;;;;;;;29.15;14.10;;;;;;;0.93;100.00;99066.38;4961194;28;20042;-93
2023/11/29 09:16:14;;;;;;;25.48;13.00;;;;;;;1.13;100.00;99067.16;4966068;28;20106;-93
2023/11/29 09:18:39;;;;;;;29.55;15.68;;;;;;;1.13;100.00;99059.28;4960024;28;20474;-92
2023/11/29 09:21:12;;;;;;;27.40;15.10;;;;;;;1.17;100.00;99042.25;4964841;28;20034;-92
2023/11/29 09:23:38;;;;;;;29.38;14.82;;;;;;;1.32;100.00;99049.69;4971852;28;20035;-93
2023/11/29 09:26:03;;;;;;;31.35;14.65;;;;;;;1.50;100.00;99047.94;4967318;28;20034;-93
2023/11/29 09:28:29;;;;;;;31.80;14.52;;;;;;;1.49;100.00;99025.22;4960811;28;20034;-92
2023/11/29 09:30:54;;;;;;;30.02;14.73;;;;;;;1.50;100.00;99013.75;4979796;28;20062;-92
2023/11/29 09:33:23;;;;;;;26.13;13.93;;;;;;;1.62;100.00;99009.94;4977113;28;20120;-93
2023/11/29 09:35:48;;;;;;;25.02;13.30;;;;;;;1.81;100.00;99019.50;4971386;28;20033;-92
2023/11/29 09:38:13;;;;;;;28.48;14.40;;;;;;;1.80;100.00;99006.47;4959255;28;20034;-92
2023/11/29 09:40:40;;;;;;;22.17;11.90;;;;;;;1.87;100.00;99000.50;4957659;28;20043;-92
2023/11/29 09:43:07;;;;;;;23.10;12.90;;;;;;;1.90;100.00;98986.22;4954284;28;20352;-92
2023/11/29 09:45:33;;;;;;;21.48;12.05;;;;;;;1.76;100.00;98957.78;4967804;28;20473;-92
2023/11/29 09:47:59;;;;;;;20.00;12.02;;;;;;;2.06;100.00;98978.47;4958691;28;20084;-92
2023/11/29 09:50:27;;;;;;;21.25;11.63;;;;;;;1.98;100.00;98959.13;4958081;28;20062;-91
2023/11/29 09:52:54;;;;;;;19.63;10.35;;;;;;;2.15;100.00;98955.63;4973662;28;20028;-91
2023/11/29 09:55:20;;;;;;;17.48;10.38;;;;;;;2.21;100.00;98948.97;4972231;28;20057;-90
2023/11/29 09:57:45;;;;;;;17.60;10.15;;;;;;;2.32;100.00;98946.91;4965553;28;20879;-92
2023/11/29 10:00:12;;;;;;;17.93;10.70;;;;;;;2.31;100.00;98928.63;4973910;28;20062;-93
2023/11/29 10:02:38;;;;;;;17.90;10.52;;;;;;;2.22;100.00;98884.78;4977111;28;20278;-92
2023/11/29 10:05:04;;;;;;;16.23;9.05;;;;;;;2.28;100.00;98890.25;4990134;28;20130;-92
2023/11/29 10:07:32;;;;;;;18.42;10.95;;;;;;;2.43;100.00;98897.56;4975138;28;20064;-92
2023/11/29 10:10:02;;;;;;;20.42;11.00;;;;;;;2.38;100.00;98882.25;4971352;28;20114;-92
2023/11/29 10:12:28;;;;;;;18.02;10.02;;;;;;;2.35;100.00;98877.28;4959692;28;20066;-92
2023/11/29 10:14:54;;;;;;;20.13;10.90;;;;;;;2.21;100.00;98843.63;4975274;28;20061;-91
2023/11/29 10:17:20;;;;;;;18.00;11.40;;;;;;;2.21;100.00;98856.81;4960374;28;20034;-93
2023/11/29 10:19:46;;;;;;;20.27;11.40;;;;;;;1.92;100.00;98823.72;4979207;28;20030;-90
2023/11/29 10:22:15;;;;;;;18.05;10.77;;;;;;;1.71;100.00;98810.91;4972133;28;20042;-90
2023/11/29 10:24:41;;;;;;;20.23;11.18;;;;;;;1.62;100.00;98809.19;4956717;28;20019;-90
2023/11/29 10:27:08;;;;;;;22.55;11.95;;;;;;;1.76;100.00;98847.28;4976544;28;20042;-91
2023/11/29 10:29:34;;;;;;;22.92;12.40;;;;;;;1.87;100.00;98852.28;4980186;28;20121;-90
2023/11/29 10:32:03;;;;;;;19.42;11.80;;;;;;;1.81;100.00;98845.00;4976221;28;20113;-90
2023/11/29 10:34:32;;;;;;;21.33;11.48;;;;;;;1.64;100.00;98828.28;4976023;28;20026;-91
2023/11/29 10:36:58;;;;;;;23.50;12.32;;;;;;;1.56;100.00;98825.56;4965434;28;20616;-90
2023/11/29 10:39:26;;;;;;;23.80;12.40;;;;;;;1.32;100.00;98802.53;4976109;28;20071;-91
2023/11/29 10:41:56;;;;;;;25.33;12.70;;;;;;;1.55;100.00;98863.38;4956551;28;20035;-90
2023/11/29 10:44:28;;;;;;;23.23;12.25;;;;;;;1.64;100.00;98875.63;4974403;28;20034;-90
2023/11/29 10:47:02;;;;;;;19.88;10.63;;;;;;;1.88;100.00;98885.53;4967797;28;20081;-91
2023/11/29 10:49:34;;;;;;;21.77;10.32;;;;;;;1.74;100.00;98836.06;4960128;28;20456;-90
2023/11/29 10:52:01;;;;;;;26.80;12.43;;;;;;;1.53;100.00;98810.09;4976028;28;20098;-91
2023/11/29 10:54:46;;;;;;;20.80;11.05;;;;;;;1.72;100.00;98836.22;4979210;28;20097;-91
2023/11/29 10:58:08;;;;;;;21.73;11.15;;;;;;;1.56;100.00;98805.34;4976228;28;20138;-91
2023/11/29 11:00:53;;;;;;;20.42;10.95;;;;;;;1.57;100.00;98816.69;4938653;29;20518;-91
2023/11/29 11:03:38;;;;;;;20.48;10.80;;;;;;;1.61;100.00;98829.38;4919703;29;20541;-91
2023/11/29 11:06:22;;;;;;;18.38;10.60;;;;;;;1.63;100.00;98831.88;4935923;29;20531;-90
2023/11/29 11:08:50;;;;;;;19.67;9.70;;;;;;;1.56;100.00;98820.31;4945718;29;20129;-90
2023/11/29 11:11:44;;;;;;;16.17;9.57;;;;;;;1.45;100.00;98821.34;4919427;29;20031;-90
2023/11/29 11:14:18;;;;;;;19.33;9.60;;;;;;;1.25;100.00;98803.09;4953087;29;20051;-88
2023/11/29 11:17:18;;;;;;;16.35;9.98;;;;;;;1.37;100.00;98848.41;4932367;29;20062;-88
2023/11/29 11:19:45;;;;;;;21.90;11.77;;;;;;;1.21;100.00;98846.44;4917422;29;20134;-89
2023/11/29 11:22:14;;;;;;;20.27;10.55;;;;;;;1.15;100.00;98848.88;4917420;29;20110;-90
2023/11/29 11:24:55;;;;;;;20.30;10.40;;;;;;;1.31;100.00;98888.47;4934107;29;20044;-89
2023/11/29 11:27:25;;;;;;;18.73;10.27;;;;;;;1.29;100.00;98887.78;4942050;28;20031;-89